Time;durP1;ratioP1;P1;durP2;ratioP2;P2;SDS_P1;SDS_P2;PMS_P1;PMS_P2;Temp;Humidity;BMP_temperature;BMP_pressure;BME280_temperature;BME280_humidity;BME280_pressure;Samples;Min_cycle;Max_cycle;Signal;HPM_P1;HPM_P2
2022/03/28 00:00:13;;;;;;;19.42;10.95;;;6.00;78.50;;;;;;5033699;28;20067;-69
2022/03/28 00:02:41;;;;;;;18.30;10.38;;;6.00;78.10;;;;;;5051569;28;20480;-69
2022/03/28 00:05:08;;;;;;;25.35;13.77;;;6.00;78.30;;;;;;5051605;28;20490;-68
2022/03/28 00:07:34;;;;;;;20.77;12.52;;;5.90;78.40;;;;;;5051024;28;20024;-68
2022/03/28 00:09:59;;;;;;;22.33;11.35;;;5.90;78.40;;;;;;5051602;28;20109;-69
2022/03/28 00:12:25;;;;;;;17.65;11.23;;;5.80;78.50;;;;;;5033694;28;20025;-68
2022/03/28 00:14:51;;;;;;;19.90;11.57;;;5.80;78.70;;;;;;5051316;28;20071;-68
2022/03/28 00:17:19;;;;;;;24.45;13.45;;;5.70;78.90;;;;;;5052221;28;20040;-68
2022/03/28 00:19:44;;;;;;;18.40;11.32;;;5.70;78.90;;;;;;5055452;28;20029;-68
2022/03/28 00:22:10;;;;;;;19.95;11.23;;;5.80;79.50;;;;;;5055516;28;20028;-68
2022/03/28 00:24:35;;;;;;;24.13;13.20;;;5.80;79.30;;;;;;5054740;28;20051;-68
2022/03/28 00:27:01;;;;;;;19.52;12.88;;;5.80;79.00;;;;;;5051050;28;20495;-69
2022/03/28 00:29:27;;;;;;;20.42;11.43;;;5.80;79.10;;;;;;5050761;28;20032;-70
2022/03/28 00:31:52;;;;;;;20.33;12.27;;;5.70;79.10;;;;;;5051540;28;20556;-69
2022/03/28 00:34:21;;;;;;;39.05;19.65;;;5.70;79.30;;;;;;5051420;28;20033;-70
2022/03/28 00:36:50;;;;;;;47.85;23.10;;;5.70;79.70;;;;;;5051310;28;20021;-70
2022/03/28 00:39:20;;;;;;;31.33;16.38;;;5.70;79.80;;;;;;5050369;28;20028;-70
2022/03/28 00:41:50;;;;;;;22.83;13.07;;;5.70;79.50;;;;;;5051002;28;20098;-70
2022/03/28 00:44:16;;;;;;;25.20;14.07;;;5.60;79.60;;;;;;5051338;28;20031;-71
2022/03/28 00:46:42;;;;;;;39.22;19.27;;;5.60;80.20;;;;;;5051015;28;20032;-70
2022/03/28 00:49:09;;;;;;;40.90;19.10;;;5.60;80.20;;;;;;5050094;28;20488;-70
2022/03/28 00:51:36;;;;;;;26.52;13.85;;;5.70;80.60;;;;;;5050936;28;20021;-69
2022/03/28 00:54:04;;;;;;;20.95;11.55;;;5.70;80.20;;;;;;5051096;28;20075;-69
2022/03/28 00:56:30;;;;;;;21.05;12.95;;;5.60;79.80;;;;;;5050673;28;20017;-69
2022/03/28 00:58:58;;;;;;;24.48;14.13;;;5.50;79.90;;;;;;5050316;28;20029;-69
2022/03/28 01:01:23;;;;;;;20.70;11.80;;;5.50;80.10;;;;;;5050818;28;20025;-69
2022/03/28 01:03:49;;;;;;;38.80;18.08;;;5.50;80.30;;;;;;5051099;28;20112;-69
2022/03/28 01:06:14;;;;;;;19.38;12.23;;;5.40;80.10;;;;;;5050936;28;20369;-69
2022/03/28 01:08:40;;;;;;;18.20;11.30;;;5.40;80.40;;;;;;5050295;28;20111;-69
2022/03/28 01:11:09;;;;;;;21.02;12.43;;;5.30;80.50;;;;;;5050617;28;20018;-68
2022/03/28 01:13:37;;;;;;;22.40;12.60;;;5.20;80.70;;;;;;5051103;28;20021;-69
2022/03/28 01:16:04;;;;;;;24.23;12.25;;;5.10;81.00;;;;;;5033522;28;20028;-69
2022/03/28 01:18:29;;;;;;;19.40;11.20;;;5.10;81.20;;;;;;5032706;28;20056;-69
2022/03/28 01:20:56;;;;;;;18.88;11.80;;;5.00;81.40;;;;;;5050952;28;20064;-69
2022/03/28 01:23:22;;;;;;;20.63;11.90;;;5.00;81.50;;;;;;5051439;28;20028;-69
2022/03/28 01:25:51;;;;;;;19.52;11.65;;;5.00;81.60;;;;;;5033384;28;20028;-69
2022/03/28 01:28:18;;;;;;;19.05;12.70;;;4.90;81.40;;;;;;5040760;28;20029;-69
2022/03/28 01:30:44;;;;;;;20.70;11.98;;;4.80;81.70;;;;;;5042490;28;20024;-70
2022/03/28 01:33:09;;;;;;;24.52;13.20;;;4.80;82.10;;;;;;5061978;28;20496;-68
2022/03/28 01:35:37;;;;;;;22.10;13.10;;;4.80;82.30;;;;;;5063472;28;20025;-68
2022/03/28 01:38:05;;;;;;;24.38;13.10;;;4.80;82.00;;;;;;5061933;28;20044;-68
2022/03/28 01:40:32;;;;;;;21.95;12.70;;;4.80;82.30;;;;;;5056475;28;20103;-68
2022/03/28 01:42:58;;;;;;;21.38;11.80;;;4.80;82.00;;;;;;5054517;28;20032;-69
2022/03/28 01:45:24;;;;;;;21.95;12.48;;;4.70;82.30;;;;;;5054499;28;20112;-68
2022/03/28 01:47:50;;;;;;;21.73;12.38;;;4.60;82.40;;;;;;5053399;28;20061;-68
2022/03/28 01:50:17;;;;;;;24.52;13.68;;;4.60;82.50;;;;;;5054256;28;20079;-68
2022/03/28 01:52:43;;;;;;;22.92;12.95;;;4.60;82.70;;;;;;5035980;28;20025;-68
2022/03/28 01:55:09;;;;;;;21.23;12.32;;;4.60;82.60;;;;;;5046701;28;20036;-68
2022/03/28 01:57:39;;;;;;;22.88;12.73;;;4.50;82.90;;;;;;5053206;28;20545;-68
2022/03/28 02:00:13;;;;;;;20.77;12.23;;;4.50;83.20;;;;;;5053652;28;20081;-68
2022/03/28 02:02:39;;;;;;;21.48;12.65;;;4.50;83.20;;;;;;5036908;28;20029;-67
2022/03/28 02:05:11;;;;;;;23.67;12.93;;;4.40;83.10;;;;;;5053454;28;20039;-68
2022/03/28 02:07:40;;;;;;;;;;;4.40;83.30;;;;;;5053585;28;20025;-68
2022/03/28 02:10:11;;;;;;;22.45;12.20;;;4.30;83.40;;;;;;5053758;28;19909;-68
2022/03/28 02:12:37;;;;;;;25.50;13.07;;;4.30;83.50;;;;;;5053353;28;20028;-68
2022/03/28 02:15:05;;;;;;;23.65;12.80;;;4.40;83.50;;;;;;5053499;28;20052;-68
2022/03/28 02:17:31;;;;;;;21.20;12.20;;;4.40;83.20;;;;;;5052862;28;20009;-68
2022/03/28 02:19:57;;;;;;;21.08;12.23;;;4.40;83.50;;;;;;5053573;28;20028;-68
2022/03/28 02:22:23;;;;;;;22.00;12.05;;;4.30;83.30;;;;;;5035534;28;20028;-68
2022/03/28 02:24:48;;;;;;;22.88;11.98;;;4.30;83.60;;;;;;5035691;28;20055;-68
2022/03/28 02:27:14;;;;;;;21.30;12.23;;;4.20;83.00;;;;;;5052695;28;20017;-67
2022/03/28 02:29:40;;;;;;;23.67;12.23;;;4.20;83.80;;;;;;5053375;28;20032;-67
2022/03/28 02:32:06;;;;;;;28.65;14.23;;;4.10;84.10;;;;;;5053570;28;20385;-68
2022/03/28 02:34:32;;;;;;;24.35;13.02;;;4.10;84.20;;;;;;5053468;28;20386;-68
2022/03/28 02:36:57;;;;;;;23.80;13.50;;;4.10;84.30;;;;;;5052956;28;20039;-66
2022/03/28 02:39:23;;;;;;;19.63;11.35;;;4.10;84.40;;;;;;5052629;28;20507;-68
2022/03/28 02:41:49;;;;;;;23.48;12.55;;;4.10;84.30;;;;;;5053043;28;20017;-68
2022/03/28 02:44:14;;;;;;;22.40;12.63;;;4.00;84.40;;;;;;5052199;28;20025;-68
2022/03/28 02:46:40;;;;;;;22.50;12.05;;;4.00;84.40;;;;;;5034742;28;20029;-68
2022/03/28 02:49:05;;;;;;;24.40;13.82;;;4.00;84.60;;;;;;5052321;28;20024;-68
2022/03/28 02:51:31;;;;;;;25.15;13.65;;;4.00;84.70;;;;;;5035130;28;20032;-67
2022/03/28 02:53:57;;;;;;;22.05;12.55;;;4.10;84.90;;;;;;5050764;28;20492;-67
2022/03/28 02:56:22;;;;;;;23.02;12.25;;;4.10;84.30;;;;;;5053045;28;20547;-67
2022/03/28 02:58:48;;;;;;;25.70;11.85;;;4.00;84.60;;;;;;5051747;28;20104;-68
2022/03/28 03:01:14;;;;;;;22.08;11.70;;;4.00;84.80;;;;;;5034578;28;20403;-69
2022/03/28 03:03:40;;;;;;;25.13;13.05;;;3.90;84.80;;;;;;5034501;28;20112;-69
2022/03/28 03:06:05;;;;;;;25.23;13.77;;;3.90;85.20;;;;;;5032400;28;20398;-69
2022/03/28 03:08:31;;;;;;;20.58;11.63;;;3.90;85.20;;;;;;5045573;28;20075;-69
2022/03/28 03:10:57;;;;;;;22.88;12.38;;;3.90;85.20;;;;;;5034327;28;20052;-68
2022/03/28 03:13:22;;;;;;;20.80;11.43;;;3.90;85.20;;;;;;5052652;28;20031;-68
2022/03/28 03:15:48;;;;;;;18.25;10.95;;;3.90;85.30;;;;;;5052697;28;20112;-68
2022/03/28 03:18:13;;;;;;;22.00;12.30;;;3.80;85.20;;;;;;5051726;28;20086;-69
2022/03/28 03:20:39;;;;;;;22.33;10.93;;;3.70;85.00;;;;;;5052382;28;20025;-69
2022/03/28 03:23:04;;;;;;;27.90;14.25;;;3.70;85.20;;;;;;5034584;28;20112;-68
2022/03/28 03:25:30;;;;;;;22.10;11.05;;;3.80;85.10;;;;;;5052251;28;20033;-68
2022/03/28 03:27:57;;;;;;;21.45;11.65;;;3.80;84.90;;;;;;5051547;28;20033;-68
2022/03/28 03:30:25;;;;;;;21.95;12.15;;;3.80;85.10;;;;;;5052106;28;20025;-68
2022/03/28 03:32:50;;;;;;;24.20;11.93;;;3.70;85.40;;;;;;5051820;28;20080;-67
2022/03/28 03:35:16;;;;;;;21.27;12.23;;;3.70;85.30;;;;;;5052047;28;20017;-68
2022/03/28 03:37:41;;;;;;;19.50;11.40;;;3.60;85.30;;;;;;5051152;28;20060;-68
2022/03/28 03:40:08;;;;;;;19.27;11.23;;;3.50;85.60;;;;;;5052175;28;20064;-68
2022/03/28 03:42:34;;;;;;;23.65;12.27;;;3.60;85.30;;;;;;5051665;28;20491;-68
2022/03/28 03:45:01;;;;;;;28.40;15.38;;;3.50;85.60;;;;;;5051718;28;20059;-68
2022/03/28 03:47:27;;;;;;;30.35;14.25;;;3.50;86.00;;;;;;5051051;28;20090;-68
2022/03/28 03:49:52;;;;;;;24.75;13.45;;;3.50;86.30;;;;;;5033849;28;20492;-68
2022/03/28 03:52:18;;;;;;;29.23;15.55;;;3.50;86.10;;;;;;5051970;28;20329;-67
2022/03/28 03:54:44;;;;;;;21.95;11.95;;;3.50;86.10;;;;;;5051042;28;20492;-67
2022/03/28 03:57:09;;;;;;;27.35;13.85;;;3.40;85.80;;;;;;5050441;28;20021;-68
2022/03/28 03:59:35;;;;;;;20.55;11.30;;;3.40;86.30;;;;;;5051520;28;20492;-69
2022/03/28 04:02:01;;;;;;;21.50;12.38;;;3.40;86.40;;;;;;5051313;28;20047;-69
2022/03/28 04:04:26;;;;;;;21.42;12.45;;;3.40;86.60;;;;;;5051458;28;20024;-68
2022/03/28 04:06:52;;;;;;;23.17;12.23;;;3.40;86.50;;;;;;5051374;28;20033;-68
2022/03/28 04:09:17;;;;;;;20.90;12.20;;;3.30;86.20;;;;;;5050589;28;20052;-68
2022/03/28 04:11:43;;;;;;;22.58;12.50;;;3.30;86.60;;;;;;5051425;28;20452;-69
2022/03/28 04:14:09;;;;;;;29.42;13.25;;;3.30;86.70;;;;;;5051373;28;20024;-68
2022/03/28 04:16:34;;;;;;;29.10;14.60;;;3.40;86.70;;;;;;5051191;28;20020;-68
2022/03/28 04:19:00;;;;;;;32.63;16.20;;;3.40;86.60;;;;;;5050646;28;20032;-68
2022/03/28 04:21:26;;;;;;;22.35;12.80;;;3.40;86.50;;;;;;5048672;28;20401;-68
2022/03/28 04:23:52;;;;;;;21.52;12.00;;;3.40;86.30;;;;;;5050373;28;20056;-68
2022/03/28 04:26:18;;;;;;;22.55;11.80;;;3.40;86.10;;;;;;5033670;28;20059;-68
2022/03/28 04:28:43;;;;;;;22.60;11.63;;;3.30;86.10;;;;;;5050397;28;20061;-69
2022/03/28 04:31:09;;;;;;;20.88;12.07;;;3.30;86.40;;;;;;5051070;28;20021;-69
2022/03/28 04:33:35;;;;;;;25.55;12.55;;;3.20;86.30;;;;;;5051149;28;20036;-69
2022/03/28 04:36:01;;;;;;;24.02;12.23;;;3.20;86.40;;;;;;5050967;28;20033;-69
2022/03/28 04:38:27;;;;;;;24.15;12.30;;;3.20;86.70;;;;;;5050283;28;20562;-69
2022/03/28 04:40:53;;;;;;;23.20;12.98;;;3.10;86.70;;;;;;5050920;28;20091;-69
2022/03/28 04:43:18;;;;;;;21.15;11.88;;;3.10;86.70;;;;;;5034695;28;20078;-68
2022/03/28 04:45:44;;;;;;;28.70;14.10;;;3.10;86.90;;;;;;5050975;28;20032;-68
2022/03/28 04:48:10;;;;;;;26.65;13.75;;;3.20;87.10;;;;;;5050222;28;20439;-68
2022/03/28 04:50:36;;;;;;;30.92;13.63;;;3.20;87.30;;;;;;5050687;28;20029;-68
2022/03/28 04:53:01;;;;;;;22.05;12.18;;;3.30;87.10;;;;;;5050977;28;20033;-67
2022/03/28 04:55:27;;;;;;;23.63;12.18;;;3.30;87.00;;;;;;5051061;28;20017;-68
2022/03/28 04:57:53;;;;;;;23.48;12.55;;;3.20;87.00;;;;;;5050172;28;20029;-69
2022/03/28 05:00:18;;;;;;;19.33;10.55;;;3.30;87.00;;;;;;5050147;28;20057;-69
2022/03/28 05:02:44;;;;;;;21.90;10.75;;;3.30;86.70;;;;;;5049729;28;20492;-69
2022/03/28 05:05:10;;;;;;;19.08;10.45;;;3.40;86.40;;;;;;5033062;28;20033;-70
2022/03/28 05:07:36;;;;;;;24.05;12.20;;;3.40;86.40;;;;;;5046018;28;20037;-70
2022/03/28 05:10:05;;;;;;;19.55;11.18;;;3.40;86.40;;;;;;5054322;28;20052;-69
2022/03/28 05:12:32;;;;;;;19.42;10.10;;;3.60;87.10;;;;;;5054162;28;20365;-70
2022/03/28 05:14:58;;;;;;;18.20;9.68;;;4.20;85.60;;;;;;5055427;28;20025;-72
2022/03/28 05:17:26;;;;;;;17.50;9.40;;;4.80;84.40;;;;;;5054641;28;20029;-72
2022/03/28 05:19:53;;;;;;;16.85;9.15;;;5.50;81.70;;;;;;5055206;28;20025;-74
2022/03/28 05:22:19;;;;;;;17.95;9.43;;;6.20;78.50;;;;;;5055249;28;20025;-73
2022/03/28 05:24:46;;;;;;;18.65;8.82;;;7.10;76.40;;;;;;5055473;28;20036;-72
2022/03/28 05:27:11;;;;;;;17.05;8.55;;;8.00;73.60;;;;;;5055000;28;20577;-70
2022/03/28 05:29:37;;;;;;;14.35;8.82;;;8.80;69.20;;;;;;5055229;28;20061;-72
2022/03/28 05:32:04;;;;;;;18.10;9.07;;;9.30;66.10;;;;;;5037336;28;20044;-71
2022/03/28 05:34:30;;;;;;;14.45;7.93;;;10.00;63.90;;;;;;5059871;28;20095;-71
2022/03/28 05:36:58;;;;;;;11.80;8.23;;;10.50;61.40;;;;;;5060050;28;20492;-71
2022/03/28 05:39:24;;;;;;;15.18;9.75;;;11.30;59.80;;;;;;5055793;28;20059;-73
2022/03/28 05:41:49;;;;;;;12.88;7.95;;;12.20;56.70;;;;;;5054060;28;20033;-73
2022/03/28 05:44:15;;;;;;;15.80;8.65;;;12.70;53.40;;;;;;5054644;28;20060;-72
2022/03/28 05:46:41;;;;;;;13.60;7.13;;;13.40;51.60;;;;;;5054114;28;20028;-73
2022/03/28 05:49:07;;;;;;;13.60;7.53;;;14.00;49.70;;;;;;5035555;28;20052;-73
2022/03/28 05:51:32;;;;;;;14.25;8.45;;;14.00;48.50;;;;;;5054049;28;20029;-73
2022/03/28 05:53:58;;;;;;;12.38;8.13;;;14.20;48.60;;;;;;5053750;28;20025;-73
2022/03/28 05:56:23;;;;;;;15.48;7.80;;;15.10;46.90;;;;;;5053978;28;20170;-74
2022/03/28 05:58:49;;;;;;;20.73;9.32;;;15.80;45.20;;;;;;5053452;28;20028;-73
2022/03/28 06:01:14;;;;;;;16.33;8.52;;;16.10;43.10;;;;;;5054397;28;20450;-72
2022/03/28 06:03:40;;;;;;;16.05;8.23;;;16.00;42.70;;;;;;5054162;28;20029;-72
2022/03/28 06:06:09;;;;;;;16.48;8.73;;;15.60;44.00;;;;;;5054347;28;20389;-72
2022/03/28 06:08:35;;;;;;;23.40;8.93;;;15.50;44.10;;;;;;5053762;28;20029;-72
2022/03/28 06:11:03;;;;;;;16.73;8.35;;;15.20;44.30;;;;;;5035423;28;20385;-72
2022/03/28 06:13:32;;;;;;;15.13;8.05;;;15.70;44.00;;;;;;5054200;28;20024;-72
2022/03/28 06:15:58;;;;;;;13.98;7.88;;;16.40;42.90;;;;;;5054372;28;20048;-72
2022/03/28 06:18:24;;;;;;;15.30;9.30;;;16.80;41.10;;;;;;5052451;28;20039;-72
2022/03/28 06:20:58;;;;;;;17.38;8.00;;;16.50;41.70;;;;;;5036252;28;20542;-72
2022/03/28 06:23:23;;;;;;;13.73;8.75;;;16.90;41.40;;;;;;5038318;28;20453;-72
2022/03/28 06:25:49;;;;;;;18.85;8.88;;;16.60;41.50;;;;;;5053988;28;20056;-72
2022/03/28 06:28:15;;;;;;;13.27;8.00;;;16.80;41.40;;;;;;5036099;28;20032;-72
2022/03/28 06:30:41;;;;;;;15.60;8.85;;;17.50;40.60;;;;;;5053887;28;20506;-72
2022/03/28 06:33:06;;;;;;;12.55;8.57;;;17.90;39.60;;;;;;5053878;28;20021;-72
2022/03/28 06:35:32;;;;;;;18.17;8.63;;;18.10;38.80;;;;;;5054020;28;20029;-73
2022/03/28 06:37:58;;;;;;;17.15;9.38;;;18.50;37.70;;;;;;5053867;28;20044;-72
2022/03/28 06:40:24;;;;;;;13.65;7.55;;;18.70;37.30;;;;;;5054291;28;20028;-72
2022/03/28 06:42:50;;;;;;;15.13;9.48;;;19.20;36.70;;;;;;5052561;28;20492;-74
2022/03/28 06:45:15;;;;;;;11.75;8.68;;;18.60;37.70;;;;;;5053155;28;20100;-76
2022/03/28 06:47:41;;;;;;;16.02;9.00;;;18.60;37.00;;;;;;5052336;28;20122;-73
2022/03/28 06:50:08;;;;;;;15.38;9.80;;;18.60;37.40;;;;;;5054066;28;20075;-75
2022/03/28 06:52:35;;;;;;;12.15;8.43;;;18.40;37.90;;;;;;5053754;28;20025;-75
2022/03/28 06:55:01;;;;;;;15.82;9.25;;;18.40;38.10;;;;;;5053371;28;20027;-74
2022/03/28 06:57:26;;;;;;;10.50;7.90;;;18.80;37.30;;;;;;5051182;28;20168;-75
2022/03/28 06:59:53;;;;;;;15.50;9.68;;;19.50;36.70;;;;;;5051528;28;20025;-76
2022/03/28 07:02:19;;;;;;;11.93;9.15;;;19.00;37.20;;;;;;5033717;28;20463;-76
2022/03/28 07:04:45;;;;;;;14.32;9.35;;;19.00;37.50;;;;;;5032405;28;20039;-76
2022/03/28 07:07:10;;;;;;;17.65;8.90;;;19.10;37.50;;;;;;5048257;28;20048;-75
2022/03/28 07:09:36;;;;;;;15.52;9.52;;;19.90;36.20;;;;;;5048734;28;20033;-74
2022/03/28 07:12:05;;;;;;;21.98;9.85;;;20.10;35.50;;;;;;5052647;28;20377;-73
2022/03/28 07:14:30;;;;;;;22.70;9.63;;;20.90;34.40;;;;;;5052782;28;20087;-76
2022/03/28 07:16:56;;;;;;;16.33;10.15;;;20.90;34.00;;;;;;5052786;28;20025;-76
2022/03/28 07:19:22;;;;;;;14.45;9.15;;;20.50;34.90;;;;;;5052723;28;20040;-76
2022/03/28 07:21:47;;;;;;;13.80;9.25;;;20.50;35.00;;;;;;5034835;28;20488;-76
2022/03/28 07:24:14;;;;;;;16.90;9.73;;;20.30;35.70;;;;;;5053034;28;20050;-76
2022/03/28 07:26:44;;;;;;;22.77;11.43;;;20.70;35.20;;;;;;5052650;28;20484;-74
2022/03/28 07:29:12;;;;;;;15.80;10.23;;;21.20;34.60;;;;;;5034477;28;20499;-77
2022/03/28 07:31:39;;;;;;;14.82;10.05;;;21.70;33.80;;;;;;5034533;28;20044;-77
2022/03/28 07:36:51;;;;;;;15.90;10.82;;;21.10;34.40;;;;;;5052337;28;20032;-77
2022/03/28 07:39:20;;;;;;;11.65;9.10;;;21.40;34.10;;;;;;5052150;28;20033;-76
2022/03/28 07:41:47;;;;;;;14.90;10.15;;;22.00;33.60;;;;;;5034347;28;20032;-76
2022/03/28 07:44:13;;;;;;;14.75;10.18;;;22.10;33.10;;;;;;5052143;28;20032;-76
2022/03/28 07:46:39;;;;;;;13.30;9.60;;;22.40;32.90;;;;;;5052076;28;20056;-77
2022/03/28 07:49:04;;;;;;;17.17;10.63;;;22.50;32.60;;;;;;5051840;28;20511;-76
2022/03/28 07:51:30;;;;;;;17.02;10.98;;;23.10;32.00;;;;;;5051782;28;20092;-73
2022/03/28 07:53:56;;;;;;;18.83;10.43;;;23.00;31.60;;;;;;5033084;28;20492;-77
2022/03/28 07:56:22;;;;;;;16.10;10.05;;;22.90;31.90;;;;;;5054044;28;20059;-76
2022/03/28 07:58:49;;;;;;;14.38;9.88;;;23.00;32.10;;;;;;5033226;28;20112;-76
2022/03/28 08:01:15;;;;;;;31.00;11.77;;;22.80;32.30;;;;;;5052462;28;20041;-75
2022/03/28 08:03:41;;;;;;;15.23;10.45;;;;;;;;;;5027984;28;20533;-75
2022/03/28 08:06:06;;;;;;;18.38;11.35;;;21.40;34.40;;;;;;5052510;28;20388;-75
2022/03/28 08:08:35;;;;;;;14.02;10.65;;;21.20;35.10;;;;;;5051288;28;20036;-75
2022/03/28 08:11:01;;;;;;;16.45;11.50;;;20.30;36.60;;;;;;5052086;28;20043;-76
2022/03/28 08:13:26;;;;;;;18.23;11.77;;;19.90;37.40;;;;;;5034333;28;20070;-75
2022/03/28 08:15:52;;;;;;;17.70;11.52;;;18.50;39.20;;;;;;5051935;28;20035;-75
2022/03/28 08:18:17;;;;;;;19.58;10.32;;;17.50;42.20;;;;;;5051247;28;20052;-75
2022/03/28 08:20:43;;;;;;;17.83;11.52;;;17.20;42.60;;;;;;5052152;28;20106;-75
2022/03/28 08:23:09;;;;;;;22.05;12.18;;;17.20;43.30;;;;;;5051778;28;20060;-75
2022/03/28 08:25:35;;;;;;;21.70;12.55;;;18.00;41.40;;;;;;5034173;28;20027;-76
2022/03/28 08:28:01;;;;;;;20.92;12.32;;;17.30;42.40;;;;;;5033463;28;20036;-76
2022/03/28 08:30:28;;;;;;;18.92;12.13;;;16.70;43.80;;;;;;5034213;28;20079;-75
2022/03/28 08:32:55;;;;;;;23.85;13.07;;;16.80;44.20;;;;;;5034079;28;20032;-76
2022/03/28 08:35:21;;;;;;;19.20;11.77;;;17.00;43.60;;;;;;5051999;28;20514;-76
2022/03/28 08:37:47;;;;;;;17.33;12.43;;;17.60;43.00;;;;;;5051613;28;20391;-74
2022/03/28 08:40:22;;;;;;;15.55;11.93;;;18.00;42.10;;;;;;5051902;28;20021;-74
2022/03/28 08:42:49;;;;;;;18.23;12.93;;;17.90;42.20;;;;;;5054578;28;20531;-76
2022/03/28 08:45:15;;;;;;;19.67;11.75;;;17.80;42.10;;;;;;5055686;28;20158;-76
2022/03/28 08:47:44;;;;;;;24.73;12.88;;;18.30;41.00;;;;;;5055038;28;20025;-75
2022/03/28 08:50:12;;;;;;;16.52;12.63;;;18.10;41.20;;;;;;5055663;28;20029;-76
2022/03/28 08:52:40;;;;;;;21.95;12.80;;;17.70;42.20;;;;;;5055431;28;20104;-77
2022/03/28 08:55:07;;;;;;;22.27;12.93;;;17.90;42.30;;;;;;5055761;28;20032;-77
2022/03/28 08:57:32;;;;;;;16.45;12.18;;;18.30;41.30;;;;;;5055335;28;20025;-77
2022/03/28 09:00:02;;;;;;;22.83;13.85;;;18.40;41.70;;;;;;5038378;28;20032;-77
2022/03/28 09:02:47;;;;;;;16.67;11.82;;;19.50;40.40;;;;;;5037715;28;20037;-77
2022/03/28 09:05:18;;;;;;;18.45;12.27;;;20.60;38.10;;;;;;5038187;28;20034;-77
2022/03/28 09:07:44;;;;;;;18.83;13.27;;;20.90;36.80;;;;;;5055596;28;20028;-75
2022/03/28 09:10:15;;;;;;;21.48;14.27;;;20.80;36.80;;;;;;5055845;28;20131;-76
2022/03/28 09:13:04;;;;;;;20.20;14.05;;;19.70;38.50;;;;;;5055057;28;20032;-77
2022/03/28 09:15:46;;;;;;;19.23;15.18;;;19.30;39.90;;;;;;5055249;28;20021;-76
2022/03/28 09:18:27;;;;;;;21.35;15.95;;;18.60;41.40;;;;;;5054565;28;20017;-76
2022/03/28 09:21:10;;;;;;;20.63;16.02;;;18.70;41.50;;;;;;5055237;28;20494;-77
2022/03/28 09:23:38;;;;;;;18.27;15.25;;;18.90;41.30;;;;;;5037392;28;20107;-75
2022/03/28 09:26:13;;;;;;;19.65;14.88;;;18.70;41.40;;;;;;5037426;28;20036;-76
2022/03/28 09:28:46;;;;;;;19.33;14.95;;;18.30;42.60;;;;;;5054623;28;20028;-77
2022/03/28 09:31:26;;;;;;;22.85;15.25;;;19.10;41.20;;;;;;5054919;28;20036;-76
2022/03/28 09:34:00;;;;;;;22.50;15.90;;;19.20;40.80;;;;;;5054879;28;20044;-77
2022/03/28 09:36:51;;;;;;;19.90;15.43;;;18.70;41.90;;;;;;5037143;28;20032;-76
2022/03/28 09:39:24;;;;;;;20.00;14.88;;;18.30;42.90;;;;;;5054453;28;20059;-76
2022/03/28 09:42:04;;;;;;;21.88;14.65;;;18.90;42.30;;;;;;5036713;28;20059;-76
2022/03/28 09:44:53;;;;;;;19.17;14.77;;;19.40;40.50;;;;;;5054859;28;20036;-75
2022/03/28 09:47:25;;;;;;;24.13;17.50;;;19.40;40.50;;;;;;5036209;28;20075;-75
2022/03/28 09:49:57;;;;;;;23.58;14.98;;;20.00;40.00;;;;;;5054590;28;20025;-76
2022/03/28 09:52:25;;;;;;;27.77;18.08;;;19.80;39.10;;;;;;5043058;23;20053;-77
2022/03/28 09:55:04;;;;;;;22.08;15.95;;;19.40;41.50;;;;;;5034559;28;20025;-76
2022/03/28 09:57:35;;;;;;;24.70;17.65;;;19.70;40.40;;;;;;5015808;28;20108;-76
2022/03/28 10:00:17;;;;;;;19.00;16.23;;;19.50;42.00;;;;;;5034307;28;20060;-76
2022/03/28 10:02:44;;;;;;;25.40;16.17;;;19.70;41.80;;;;;;5032601;28;20033;-76
2022/03/28 10:05:13;;;;;;;26.27;19.13;;;20.00;41.00;;;;;;5030628;28;20037;-77
2022/03/28 10:07:39;;;;;;;22.80;15.63;;;20.40;40.40;;;;;;5033871;28;20034;-77
2022/03/28 10:10:05;;;;;;;23.13;16.20;;;20.10;39.50;;;;;;5034297;28;20037;-77
2022/03/28 10:12:36;;;;;;;26.95;18.73;;;20.00;41.10;;;;;;5034160;28;20428;-76
2022/03/28 10:15:02;;;;;;;25.88;16.73;;;20.00;40.80;;;;;;5034256;28;20022;-76
2022/03/28 10:17:31;;;;;;;21.55;17.33;;;20.00;40.40;;;;;;5034287;28;20026;-76
2022/03/28 10:19:58;;;;;;;19.08;14.65;;;20.00;41.70;;;;;;5016125;28;20067;-76
2022/03/28 10:22:36;;;;;;;21.50;17.63;;;19.90;40.60;;;;;;5048530;23;20056;-76
2022/03/28 10:25:07;;;;;;;19.25;15.07;;;19.20;42.50;;;;;;5034543;28;20037;-76
2022/03/28 10:27:33;;;;;;;23.08;16.10;;;19.10;43.40;;;;;;5032866;28;20021;-76
2022/03/28 10:30:16;;;;;;;24.98;15.57;;;19.00;43.50;;;;;;5034234;28;20492;-76
2022/03/28 10:32:42;;;;;;;20.92;16.08;;;18.70;42.60;;;;;;5032442;28;20440;-77
2022/03/28 10:35:08;;;;;;;28.05;19.33;;;18.60;43.70;;;;;;5033849;28;20034;-77
2022/03/28 10:37:40;;;;;;;15.18;12.63;;;18.70;43.90;;;;;;5033125;28;20072;-76
2022/03/28 10:40:12;;;;;;;21.92;14.68;;;18.80;41.60;;;;;;5033779;28;20494;-77
2022/03/28 10:42:39;;;;;;;23.35;15.93;;;18.80;41.50;;;;;;5032154;28;20116;-77
2022/03/28 10:45:08;;;;;;;14.25;10.98;;;18.80;42.60;;;;;;5033443;28;20030;-77
2022/03/28 10:47:50;;;;;;;22.90;15.50;;;18.90;40.30;;;;;;5032706;28;20033;-77
2022/03/28 10:50:25;;;;;;;18.73;13.45;;;18.80;40.20;;;;;;5034104;28;20026;-76
2022/03/28 10:53:19;;;;;;;27.58;17.75;;;18.80;40.30;;;;;;5033766;28;20073;-78
2022/03/28 10:55:46;;;;;;;12.98;10.38;;;18.90;41.80;;;;;;5033416;28;20014;-78
2022/03/28 10:58:17;;;;;;;16.40;12.63;;;19.00;39.60;;;;;;5031298;28;20021;-77
2022/03/28 11:01:01;;;;;;;;;;;18.90;39.10;;;;;;5033619;28;20057;-77
2022/03/28 11:03:38;;;;;;;19.88;13.02;;;18.80;40.00;;;;;;5032246;28;19913;-78
2022/03/28 11:06:05;;;;;;;20.17;14.20;;;18.70;39.90;;;;;;5032454;28;20087;-77
2022/03/28 11:08:36;;;;;;;20.00;13.30;;;18.50;40.90;;;;;;5031231;28;20064;-77
2022/03/28 11:11:20;;;;;;;;;;;18.50;40.80;;;;;;5033393;28;20069;-76
2022/03/28 11:14:10;;;;;;;16.83;11.82;;;18.60;40.70;;;;;;5031950;28;19912;-76
2022/03/28 11:16:50;;;;;;;20.45;12.88;;;18.60;39.30;;;;;;5032939;28;20515;-75
2022/03/28 11:19:33;;;;;;;13.10;10.10;;;18.60;38.80;;;;;;5031642;28;20036;-77
2022/03/28 11:22:00;;;;;;;23.60;14.13;;;18.50;38.10;;;;;;5045177;28;20419;-77
2022/03/28 11:24:42;;;;;;;21.70;14.32;;;18.60;38.90;;;;;;5035447;28;20626;-77
2022/03/28 11:27:12;;;;;;;26.42;16.00;;;18.70;40.10;;;;;;5052457;28;20096;-76
2022/03/28 11:29:41;;;;;;;14.37;9.83;;;18.70;38.80;;;;;;5052698;28;20054;-80
2022/03/28 11:32:18;;;;;;;11.13;8.40;;;18.60;37.10;;;;;;5052802;28;20025;-78
2022/03/28 11:34:56;;;;;;;15.35;11.18;;;18.50;36.80;;;;;;5052271;28;20029;-77
2022/03/28 11:37:26;;;;;;;13.73;9.73;;;18.50;38.20;;;;;;5051884;28;20087;-77
2022/03/28 11:39:55;;;;;;;11.88;10.02;;;18.60;36.70;;;;;;5052417;28;20484;-77
2022/03/28 11:42:25;;;;;;;10.52;8.05;;;18.60;38.10;;;;;;5052196;28;20576;-77
2022/03/28 11:44:55;;;;;;;26.17;14.40;;;18.60;35.40;;;;;;5052896;28;20056;-77
2022/03/28 11:47:21;;;;;;;13.48;10.80;;;18.60;38.60;;;;;;5051392;28;20083;-75
2022/03/28 11:49:56;;;;;;;18.38;11.73;;;18.60;38.50;;;;;;5052125;28;20375;-77
2022/03/28 11:52:22;;;;;;;15.13;10.57;;;18.60;39.00;;;;;;5052135;28;20025;-77
2022/03/28 11:54:48;;;;;;;16.10;9.50;;;18.70;37.90;;;;;;5033907;28;20031;-77
2022/03/28 12:00:20;;;;;;;19.85;14.05;;;18.90;37.80;;;;;;5052173;28;20102;-76
2022/03/28 12:02:51;;;;;;;15.35;11.23;;;18.90;38.80;;;;;;5052090;28;20032;-76
2022/03/28 12:05:36;;;;;;;15.05;10.57;;;18.90;36.80;;;;;;5038976;28;20025;-79
2022/03/28 12:08:13;;;;;;;18.80;12.23;;;18.90;36.10;;;;;;5031621;28;20072;-76
2022/03/28 12:10:45;;;;;;;17.73;12.05;;;18.90;37.70;;;;;;5042144;28;20025;-76
2022/03/28 12:13:11;;;;;;;17.17;12.27;;;18.90;38.00;;;;;;5052070;28;20074;-77
2022/03/28 12:15:48;;;;;;;21.45;11.00;;;18.90;37.90;;;;;;5051269;28;20025;-77
2022/03/28 12:18:16;;;;;;;15.65;11.90;;;19.00;37.90;;;;;;5050522;28;20507;-77
2022/03/28 12:20:44;;;;;;;23.20;14.13;;;19.00;38.30;;;;;;5033505;28;20142;-76
2022/03/28 12:23:12;;;;;;;21.27;16.10;;;19.00;39.50;;;;;;5020948;28;20403;-77
2022/03/28 12:25:41;;;;;;;17.27;11.23;;;19.00;41.00;;;;;;5030331;28;20026;-76
2022/03/28 12:28:35;;;;;;;18.30;12.75;;;18.80;39.30;;;;;;5029790;28;20179;-76
2022/03/28 12:31:05;;;;;;;14.65;11.40;;;18.80;39.60;;;;;;5028664;28;20037;-76
2022/03/28 12:33:33;;;;;;;20.67;12.27;;;18.70;37.50;;;;;;5032012;28;20022;-74
2022/03/28 12:36:04;;;;;;;17.60;11.38;;;18.80;37.80;;;;;;5031728;28;20420;-75
2022/03/28 12:38:40;;;;;;;15.13;10.70;;;19.00;36.60;;;;;;5013600;28;20017;-75
2022/03/28 12:41:13;;;;;;;14.95;11.35;;;19.00;36.70;;;;;;5032075;28;20029;-77
2022/03/28 12:43:45;;;;;;;21.75;15.23;;;19.00;38.50;;;;;;5033589;28;20064;-76
2022/03/28 12:46:11;;;;;;;18.45;14.15;;;19.10;40.50;;;;;;5034018;28;20026;-75